Time;durP1;ratioP1;P1;durP2;ratioP2;P2;SDS_P1;SDS_P2;PMS_P1;PMS_P2;Temp;Humidity;BMP_temperature;BMP_pressure;BME280_temperature;BME280_humidity;BME280_pressure;Samples;Min_cycle;Max_cycle;Signal;HPM_P1;HPM_P2
2022/04/02 00:01:39;;;;;;;4.28;1.60;;;1.20;63.30;;;;;;4090737;28;20027;-75
2022/04/02 00:03:40;;;;;;;10.05;2.15;;;1.20;63.30;;;;;;4077058;29;20502;-75
2022/04/02 00:05:41;;;;;;;4.80;2.00;;;1.20;63.30;;;;;;4093989;28;20035;-75
2022/04/02 00:07:41;;;;;;;8.68;2.33;;;1.30;63.10;;;;;;4061435;29;20028;-75
2022/04/02 00:09:43;;;;;;;4.75;1.60;;;1.30;63.20;;;;;;4089768;28;20043;-76
2022/04/02 00:11:45;;;;;;;8.07;1.80;;;1.30;63.30;;;;;;4071012;29;20039;-76
2022/04/02 00:13:46;;;;;;;6.18;1.63;;;1.40;63.10;;;;;;4075012;29;20560;-76
2022/04/02 00:15:46;;;;;;;8.82;1.75;;;1.40;63.50;;;;;;4077391;29;20066;-76
2022/04/02 00:17:47;;;;;;;5.40;1.75;;;1.40;63.10;;;;;;4073939;29;20111;-76
2022/04/02 00:19:48;;;;;;;4.85;1.33;;;1.40;63.10;;;;;;4074088;29;20063;-76
2022/04/02 00:21:48;;;;;;;4.85;1.58;;;1.40;63.20;;;;;;4089170;28;20077;-76
2022/04/02 00:23:49;;;;;;;3.35;1.35;;;1.40;63.20;;;;;;4090070;29;20099;-75
2022/04/02 00:25:50;;;;;;;5.10;1.63;;;1.40;63.00;;;;;;4092542;28;20122;-76
2022/04/02 00:27:50;;;;;;;8.90;1.75;;;1.40;63.00;;;;;;4060954;29;20063;-76
2022/04/02 00:29:51;;;;;;;9.07;1.38;;;1.50;63.30;;;;;;4071901;29;20031;-76
2022/04/02 00:31:52;;;;;;;5.63;1.58;;;1.40;63.10;;;;;;4067292;29;20122;-76
2022/04/02 00:33:52;;;;;;;6.15;1.98;;;1.40;63.00;;;;;;4089728;29;20038;-76
2022/04/02 00:35:53;;;;;;;8.18;1.90;;;1.40;63.30;;;;;;4058349;29;20451;-76
2022/04/02 00:37:53;;;;;;;7.15;1.75;;;1.40;63.40;;;;;;4072268;29;20036;-76
2022/04/02 00:39:54;;;;;;;4.50;1.67;;;1.40;63.30;;;;;;4075956;29;20031;-75
2022/04/02 00:41:55;;;;;;;3.97;1.58;;;1.40;63.30;;;;;;4060284;29;20056;-75
2022/04/02 00:43:58;;;;;;;5.80;1.65;;;1.40;63.40;;;;;;4060518;29;20020;-75
2022/04/02 00:46:09;;;;;;;6.43;1.20;;;1.30;63.40;;;;;;4045069;29;20048;-74
2022/04/02 00:48:09;;;;;;;4.47;1.48;;;1.30;63.30;;;;;;4074814;29;20326;-75
2022/04/02 00:50:11;;;;;;;8.32;1.80;;;1.30;63.10;;;;;;4059521;29;20024;-75
2022/04/02 00:52:11;;;;;;;5.65;1.52;;;1.30;63.40;;;;;;4087158;28;20106;-76
2022/04/02 00:54:14;;;;;;;4.47;1.40;;;1.30;63.30;;;;;;4060114;29;20168;-76
2022/04/02 00:56:15;;;;;;;4.65;1.63;;;1.30;63.50;;;;;;4068424;29;20508;-75
2022/04/02 00:58:16;;;;;;;3.63;0.98;;;1.30;63.70;;;;;;4072542;29;20023;-75
2022/04/02 01:00:17;;;;;;;7.43;1.63;;;1.30;63.70;;;;;;4075396;29;20023;-75
2022/04/02 01:02:19;;;;;;;8.18;2.17;;;1.40;63.80;;;;;;4138477;23;20578;-82
2022/04/02 01:04:20;;;;;;;6.65;0.95;;;1.40;64.20;;;;;;4122667;28;20027;-83
2022/04/02 01:06:21;;;;;;;4.45;1.50;;;1.40;64.80;;;;;;4121916;28;20073;-83
2022/04/02 01:08:26;;;;;;;3.70;1.20;;;1.40;64.20;;;;;;4107703;28;20041;-83
2022/04/02 01:10:28;;;;;;;7.13;1.40;;;1.40;64.20;;;;;;4122321;28;20058;-81
2022/04/02 01:12:34;;;;;;;7.05;1.67;;;1.40;64.10;;;;;;4121810;28;20573;-81
2022/04/02 01:14:35;;;;;;;5.85;1.33;;;1.50;64.20;;;;;;4106914;28;20048;-81
2022/04/02 01:16:39;;;;;;;7.28;1.60;;;1.50;64.10;;;;;;4120892;28;20034;-81
2022/04/02 01:18:39;;;;;;;4.00;1.45;;;1.50;63.80;;;;;;4108553;28;20046;-81
2022/04/02 01:20:58;;;;;;;2.50;1.00;;;1.60;63.70;;;;;;4123540;28;20038;-81
2022/04/02 01:23:05;;;;;;;7.25;1.30;;;1.60;63.30;;;;;;4121714;28;20462;-81
2022/04/02 01:25:12;;;;;;;1.77;1.02;;;1.60;63.10;;;;;;4139962;28;20026;-81
2022/04/02 01:27:28;;;;;;;3.97;1.17;;;1.60;62.90;;;;;;4125791;28;20035;-82
2022/04/02 01:29:36;;;;;;;6.25;1.27;;;1.60;62.70;;;;;;4091912;28;20516;-81
2022/04/02 01:32:15;;;;;;;3.50;1.30;;;1.60;62.70;;;;;;4118203;28;20051;-83
2022/04/02 01:34:19;;;;;;;8.02;1.30;;;1.60;62.90;;;;;;4110739;28;20078;-83
2022/04/02 01:36:23;;;;;;;7.53;1.20;;;1.60;63.00;;;;;;4107956;28;20393;-83
2022/04/02 01:38:27;;;;;;;4.63;1.70;;;1.60;63.10;;;;;;4090014;28;20043;-83
2022/04/02 01:40:32;;;;;;;5.50;1.50;;;1.60;63.60;;;;;;4105967;28;20448;-82
2022/04/02 01:42:33;;;;;;;;;;;1.60;63.90;;;;;;4090324;28;20031;-82
2022/04/02 01:44:34;;;;;;;4.28;1.67;;;1.60;64.30;;;;;;4104517;28;19910;-82
2022/04/02 01:46:34;;;;;;;9.30;1.88;;;1.60;64.50;;;;;;4107327;28;20667;-82
2022/04/02 01:48:35;;;;;;;12.63;1.63;;;1.60;64.70;;;;;;4108577;28;20452;-82
2022/04/02 01:50:36;;;;;;;6.05;1.38;;;1.60;64.80;;;;;;4071289;29;20032;-82
2022/04/02 01:52:37;;;;;;;2.58;1.20;;;1.60;64.80;;;;;;4085220;28;20093;-83
2022/04/02 01:54:37;;;;;;;4.90;1.50;;;1.60;64.80;;;;;;4104792;28;20512;-83
2022/04/02 01:56:40;;;;;;;3.78;1.00;;;1.60;64.70;;;;;;4079588;29;20027;-82
2022/04/02 01:58:42;;;;;;;4.40;1.10;;;1.60;64.60;;;;;;4088505;28;20474;-83
2022/04/02 02:00:47;;;;;;;3.38;1.35;;;1.50;64.30;;;;;;4106956;28;20041;-83
2022/04/02 02:02:48;;;;;;;1.83;0.80;;;1.50;64.10;;;;;;4073868;29;20398;-84
2022/04/02 02:04:51;;;;;;;3.83;1.00;;;1.50;63.80;;;;;;4089805;28;20540;-83
2022/04/02 02:09:20;;;;;;;4.47;1.23;;;1.50;63.20;;;;;;4121728;28;20063;-85
2022/04/02 02:11:42;;;;;;;2.28;1.10;;;1.50;63.00;;;;;;4086549;28;20083;-86
2022/04/02 02:13:46;;;;;;;2.60;1.60;;;1.40;62.90;;;;;;4094187;28;20054;-86
2022/04/02 02:16:07;;;;;;;4.55;1.95;;;1.50;63.20;;;;;;4084944;28;20019;-85
2022/04/02 02:18:33;;;;;;;5.88;2.25;;;1.40;63.80;;;;;;4100097;28;20026;-86
2022/04/02 02:20:56;;;;;;;8.68;2.22;;;1.30;64.60;;;;;;4077169;29;20054;-86
2022/04/02 02:23:18;;;;;;;7.95;2.38;;;1.30;64.60;;;;;;4093963;28;20035;-85
2022/04/02 02:25:39;;;;;;;4.97;1.98;;;1.20;65.20;;;;;;4104967;28;20023;-85
2022/04/02 02:28:05;;;;;;;5.50;2.20;;;1.20;65.00;;;;;;4109922;28;20035;-85
2022/04/02 02:30:13;;;;;;;7.28;2.08;;;1.10;64.90;;;;;;4107600;28;20079;-85
2022/04/02 02:32:36;;;;;;;8.88;2.35;;;1.10;65.60;;;;;;4093637;28;20035;-86
2022/04/02 02:37:02;;;;;;;4.55;2.17;;;1.00;66.40;;;;;;4108772;28;20038;-86
2022/04/02 02:39:03;;;;;;;5.65;2.55;;;0.90;66.70;;;;;;4109599;28;20481;-85
2022/04/02 02:41:04;;;;;;;5.50;2.53;;;0.80;67.20;;;;;;4078077;29;20169;-84
2022/04/02 02:43:05;;;;;;;5.80;2.38;;;0.80;67.20;;;;;;4093002;28;20031;-86
2022/04/02 02:45:09;;;;;;;5.38;1.90;;;0.80;67.30;;;;;;4108457;28;20110;-85
2022/04/02 02:47:11;;;;;;;5.95;2.35;;;0.70;67.20;;;;;;4124232;28;20031;-86
2022/04/02 02:49:15;;;;;;;5.55;2.05;;;0.80;67.80;;;;;;4091526;28;20031;-85
2022/04/02 02:51:29;;;;;;;9.52;2.40;;;0.70;68.10;;;;;;4086539;28;20494;-86
2022/04/02 02:54:09;;;;;;;17.70;3.17;;;0.60;68.00;;;;;;4092107;28;20042;-85
2022/04/02 02:56:29;;;;;;;7.60;2.17;;;0.60;68.20;;;;;;4116558;28;20461;-86
2022/04/02 02:58:45;;;;;;;4.05;1.83;;;0.60;68.50;;;;;;4092465;28;20031;-85
2022/04/02 03:01:33;;;;;;;5.40;2.17;;;0.40;68.30;;;;;;4096076;28;20777;-85
2022/04/02 03:03:56;;;;;;;5.68;1.90;;;0.50;68.30;;;;;;4104131;28;20540;-86
2022/04/02 03:06:11;;;;;;;4.63;2.00;;;0.50;68.70;;;;;;4078489;29;20055;-85
2022/04/02 03:08:26;;;;;;;3.92;2.28;;;0.40;68.90;;;;;;4110663;28;20157;-86
2022/04/02 03:10:34;;;;;;;5.68;1.98;;;0.40;69.30;;;;;;4106162;28;20114;-85
2022/04/02 03:12:44;;;;;;;9.77;2.17;;;0.30;69.70;;;;;;4076931;28;20031;-86
2022/04/02 03:14:45;;;;;;;8.88;2.00;;;0.30;70.10;;;;;;4090138;28;20027;-86
2022/04/02 03:16:46;;;;;;;8.40;1.92;;;0.30;70.40;;;;;;4109064;28;20030;-86
2022/04/02 03:19:07;;;;;;;7.65;2.10;;;0.30;71.30;;;;;;4107043;28;20042;-86
2022/04/02 03:21:07;;;;;;;8.10;2.58;;;0.30;70.90;;;;;;4059935;29;20418;-87
2022/04/02 03:23:17;;;;;;;7.55;2.10;;;0.30;71.20;;;;;;4043551;29;20040;-86
2022/04/02 03:25:36;;;;;;;4.88;1.95;;;0.30;71.80;;;;;;4030062;29;20549;-87
2022/04/02 03:27:40;;;;;;;9.32;2.40;;;0.30;72.30;;;;;;4027886;29;20123;-86
2022/04/02 03:29:43;;;;;;;9.80;2.22;;;0.30;72.40;;;;;;4029130;29;20120;-85
2022/04/02 03:31:50;;;;;;;6.15;2.50;;;0.20;72.20;;;;;;4060998;29;20483;-87
2022/04/02 03:34:18;;;;;;;;;;;;;;;;;;;;;
2022/04/02 03:36:29;;;;;;;6.50;1.85;;;0.20;72.20;;;;;;4062694;29;20482;-87
2022/04/02 03:38:56;;;;;;;5.68;2.33;;;0.30;72.20;;;;;;4049645;29;20031;-86
2022/04/02 03:41:05;;;;;;;6.90;2.38;;;0.30;72.40;;;;;;4057635;29;20567;-84
2022/04/02 03:43:18;;;;;;;5.97;2.45;;;0.20;72.30;;;;;;4048272;29;20036;-85
2022/04/02 03:45:34;;;;;;;7.45;2.40;;;0.30;72.70;;;;;;4058003;29;20088;-87
2022/04/02 03:48:04;;;;;;;5.88;2.03;;;0.20;72.60;;;;;;4039905;29;20090;-86
2022/04/02 03:50:13;;;;;;;5.63;2.00;;;0.20;72.70;;;;;;4061359;29;20099;-86
2022/04/02 03:52:33;;;;;;;6.82;1.90;;;0.30;72.70;;;;;;4027205;29;20503;-86
2022/04/02 03:54:42;;;;;;;4.13;1.70;;;0.20;72.50;;;;;;4051302;29;20147;-85
2022/04/02 03:56:51;;;;;;;6.53;1.88;;;0.30;72.70;;;;;;4058973;29;20592;-87
2022/04/02 03:59:06;;;;;;;4.70;1.80;;;0.20;72.60;;;;;;4083294;28;20126;-86
2022/04/02 04:01:22;;;;;;;4.85;2.20;;;0.20;72.50;;;;;;4110460;28;20157;-87
2022/04/02 04:03:33;;;;;;;5.72;2.10;;;0.20;72.20;;;;;;4096945;28;20039;-86
2022/04/02 04:05:52;;;;;;;9.50;2.63;;;0.20;72.20;;;;;;4092555;28;20038;-86
2022/04/02 04:08:20;;;;;;;5.20;2.00;;;0.20;72.20;;;;;;4089566;28;20064;-86
2022/04/02 04:10:21;;;;;;;5.57;2.05;;;0.20;72.30;;;;;;4059418;29;21042;-85
2022/04/02 04:12:39;;;;;;;8.55;1.98;;;0.20;72.40;;;;;;4062738;29;20043;-86
2022/04/02 04:14:39;;;;;;;6.28;2.00;;;0.10;72.10;;;;;;4077211;29;20032;-86
2022/04/02 04:16:52;;;;;;;7.32;2.20;;;0.10;72.30;;;;;;4044628;29;20112;-86
2022/04/02 04:19:21;;;;;;;7.57;2.10;;;0.10;72.50;;;;;;4074538;29;20039;-86
2022/04/02 04:21:29;;;;;;;7.85;2.13;;;0.00;72.60;;;;;;4044975;29;20059;-86
2022/04/02 04:23:34;;;;;;;8.40;1.85;;;0.10;72.30;;;;;;4048078;29;20044;-85
2022/04/02 04:26:04;;;;;;;5.00;2.33;;;0.00;72.20;;;;;;4056621;29;20225;-85
2022/04/02 04:28:07;;;;;;;6.15;1.77;;;0.10;72.30;;;;;;4059664;29;20051;-85
2022/04/02 04:30:32;;;;;;;7.43;2.00;;;0.00;72.20;;;;;;4073190;29;20059;-86
2022/04/02 04:32:46;;;;;;;5.85;1.67;;;-0.10;72.00;;;;;;4080111;29;20044;-84
2022/04/02 04:34:47;;;;;;;3.55;1.80;;;-0.10;71.90;;;;;;4095827;29;20044;-85
2022/04/02 04:36:51;;;;;;;8.45;2.20;;;-0.10;71.70;;;;;;4083841;29;20047;-86
2022/04/02 04:39:07;;;;;;;5.43;1.85;;;-0.10;71.60;;;;;;4034378;29;20083;-86
2022/04/02 04:41:13;;;;;;;5.38;2.05;;;-0.10;71.50;;;;;;4058085;29;20654;-87
2022/04/02 04:43:47;;;;;;;7.38;2.10;;;-0.10;71.70;;;;;;4059429;29;20028;-85
2022/04/02 04:46:16;;;;;;;6.90;2.55;;;-0.20;71.60;;;;;;4043856;29;20037;-86
2022/04/02 04:48:23;;;;;;;7.05;2.40;;;-0.10;72.40;;;;;;4040202;29;20527;-85
2022/04/02 04:51:09;;;;;;;6.93;2.40;;;-0.10;72.80;;;;;;4044278;29;20084;-87
2022/04/02 04:53:26;;;;;;;7.93;2.25;;;-0.10;73.00;;;;;;4012816;29;20048;-87
2022/04/02 04:55:51;;;;;;;5.20;2.22;;;-0.10;73.00;;;;;;3984709;29;20888;-87
2022/04/02 04:57:57;;;;;;;8.07;1.90;;;-0.20;73.00;;;;;;3987744;29;20040;-85
2022/04/02 05:03:08;;;;;;;;;;;;;;;;;;;;;
2022/04/02 05:05:18;;;;;;;7.80;2.22;;;-0.10;73.50;;;;;;4011616;29;20056;-85
2022/04/02 05:07:24;;;;;;;8.35;2.35;;;-0.10;73.60;;;;;;4012288;29;20025;-86
2022/04/02 05:09:25;;;;;;;5.68;2.10;;;-0.10;73.70;;;;;;3984437;29;20047;-86
2022/04/02 05:11:46;;;;;;;8.68;2.40;;;-0.10;73.70;;;;;;4014088;29;20041;-86
2022/04/02 05:13:47;;;;;;;10.73;2.00;;;-0.20;73.80;;;;;;4009635;29;20038;-85
2022/04/02 05:15:47;;;;;;;9.63;2.10;;;-0.20;74.10;;;;;;4012506;29;20049;-84
2022/04/02 05:17:48;;;;;;;7.38;2.15;;;-0.20;75.20;;;;;;4010333;29;20033;-86
2022/04/02 05:19:49;;;;;;;8.15;2.33;;;-0.10;74.70;;;;;;4017152;29;20097;-85
2022/04/02 05:21:50;;;;;;;8.05;1.92;;;-0.10;75.00;;;;;;4011793;29;20117;-85
2022/04/02 05:23:51;;;;;;;4.10;1.90;;;-0.10;76.10;;;;;;4012077;29;20054;-84
2022/04/02 05:25:52;;;;;;;9.15;2.10;;;-0.10;75.30;;;;;;3997073;29;20076;-86
2022/04/02 05:27:54;;;;;;;10.32;2.30;;;0.00;75.30;;;;;;4011774;29;20062;-86
2022/04/02 05:29:55;;;;;;;8.20;2.42;;;0.00;75.50;;;;;;4052483;28;20128;-85
2022/04/02 05:31:55;;;;;;;9.85;2.28;;;0.00;75.70;;;;;;4087392;28;20118;-85
2022/04/02 05:33:59;;;;;;;10.18;2.28;;;0.10;75.70;;;;;;4077893;28;20029;-86
2022/04/02 05:35:59;;;;;;;9.57;2.00;;;0.10;75.50;;;;;;4100281;28;20046;-85
2022/04/02 05:38:00;;;;;;;6.97;2.25;;;0.10;75.60;;;;;;4070849;29;20508;-83
2022/04/02 05:40:01;;;;;;;9.35;2.33;;;0.10;75.60;;;;;;4114793;28;20023;-86
2022/04/02 05:42:02;;;;;;;5.70;1.88;;;0.20;75.90;;;;;;4107858;28;20027;-86
2022/04/02 05:44:05;;;;;;;7.07;2.00;;;0.20;75.80;;;;;;4113849;28;20049;-83
2022/04/02 05:46:05;;;;;;;8.18;2.00;;;0.20;75.70;;;;;;4077352;28;20092;-86
2022/04/02 05:48:06;;;;;;;9.85;2.42;;;0.20;75.70;;;;;;4108265;28;20532;-84
2022/04/02 05:50:08;;;;;;;3.10;1.80;;;0.30;75.90;;;;;;4117309;28;20043;-84
2022/04/02 05:52:09;;;;;;;5.55;1.80;;;0.30;75.80;;;;;;4104118;28;20034;-84
2022/04/02 05:54:10;;;;;;;7.55;2.45;;;0.50;75.80;;;;;;4074652;29;21028;-86
2022/04/02 05:56:11;;;;;;;10.60;2.38;;;0.40;76.70;;;;;;4103164;28;20176;-84
2022/04/02 05:58:12;;;;;;;5.18;2.22;;;0.40;75.90;;;;;;4105501;28;20031;-87
2022/04/02 06:00:14;;;;;;;4.78;1.90;;;0.50;75.80;;;;;;4102827;28;20032;-86
2022/04/02 06:02:14;;;;;;;6.18;2.38;;;0.50;75.80;;;;;;4089774;28;20047;-85
2022/04/02 06:04:15;;;;;;;4.95;1.92;;;0.50;76.00;;;;;;4120763;28;20030;-85
2022/04/02 06:06:16;;;;;;;9.82;2.13;;;0.50;76.00;;;;;;4102572;28;20030;-84
2022/04/02 06:08:17;;;;;;;6.45;1.90;;;0.60;75.90;;;;;;4101998;28;20030;-85
2022/04/02 06:10:21;;;;;;;9.88;1.95;;;0.70;75.80;;;;;;4088745;28;20258;-85
2022/04/02 06:12:22;;;;;;;5.45;2.20;;;0.70;75.70;;;;;;4107643;28;20035;-85
2022/04/02 06:14:23;;;;;;;10.13;1.98;;;0.80;75.70;;;;;;4089462;28;20031;-84
2022/04/02 06:16:23;;;;;;;3.78;1.90;;;0.70;75.70;;;;;;4090700;28;20032;-85
2022/04/02 06:18:24;;;;;;;8.95;1.98;;;0.80;75.50;;;;;;4119425;28;20022;-86
2022/04/02 06:20:25;;;;;;;9.00;2.10;;;0.80;75.50;;;;;;4120087;28;20066;-85
2022/04/02 06:22:26;;;;;;;4.90;2.10;;;0.90;75.70;;;;;;4071181;29;20028;-85
2022/04/02 06:24:26;;;;;;;7.10;1.80;;;1.00;75.60;;;;;;4093342;28;20045;-86
2022/04/02 06:26:27;;;;;;;7.15;2.28;;;1.00;75.30;;;;;;4073319;29;20043;-84
2022/04/02 06:28:27;;;;;;;6.15;1.88;;;1.10;75.10;;;;;;4120286;28;20273;-85
2022/04/02 06:30:28;;;;;;;4.95;2.30;;;1.20;74.80;;;;;;4093322;28;20023;-84
2022/04/02 06:32:31;;;;;;;9.05;2.58;;;1.20;74.70;;;;;;4116188;28;20023;-85
2022/04/02 06:34:35;;;;;;;4.93;2.33;;;1.30;74.70;;;;;;4073512;28;20063;-85
2022/04/02 06:36:36;;;;;;;5.03;1.80;;;1.40;74.40;;;;;;4087512;28;20038;-84
2022/04/02 06:38:36;;;;;;;7.35;1.80;;;1.40;74.20;;;;;;4087356;28;20030;-85
2022/04/02 06:40:37;;;;;;;8.23;2.13;;;1.50;74.00;;;;;;4120044;28;20078;-85
2022/04/02 06:42:38;;;;;;;5.45;2.30;;;1.50;73.50;;;;;;4101371;28;20116;-84
2022/04/02 06:44:38;;;;;;;8.07;2.35;;;1.60;73.10;;;;;;4105621;28;20035;-85
2022/04/02 06:46:39;;;;;;;7.88;1.63;;;1.50;72.60;;;;;;4106536;28;20707;-85
2022/04/02 06:48:40;;;;;;;5.32;1.77;;;1.70;72.40;;;;;;4087154;28;20058;-84
2022/04/02 06:50:42;;;;;;;5.13;2.28;;;1.70;73.00;;;;;;4087832;28;20123;-84
2022/04/02 06:52:43;;;;;;;5.90;2.38;;;1.80;72.10;;;;;;4090792;28;20062;-83
2022/04/02 06:54:50;;;;;;;4.72;1.90;;;1.80;71.80;;;;;;4114280;28;20046;-85
2022/04/02 06:56:50;;;;;;;5.53;1.90;;;1.80;71.60;;;;;;4073547;29;20024;-85
2022/04/02 06:58:51;;;;;;;7.95;1.83;;;2.00;71.40;;;;;;4118434;28;21628;-85
2022/04/02 07:00:58;;;;;;;3.92;1.80;;;2.10;71.10;;;;;;4107464;28;20031;-84
2022/04/02 07:02:59;;;;;;;6.07;1.95;;;2.10;70.50;;;;;;4093550;28;20051;-85
2022/04/02 07:05:00;;;;;;;7.30;1.88;;;2.10;70.00;;;;;;4104078;28;20043;-86
2022/04/02 07:07:00;;;;;;;4.38;1.80;;;2.20;69.80;;;;;;4091418;28;20035;-85
2022/04/02 07:09:01;;;;;;;5.25;1.65;;;2.20;69.60;;;;;;4098768;28;20050;-84
2022/04/02 07:11:03;;;;;;;6.13;1.73;;;2.20;69.40;;;;;;4058274;29;20036;-86
2022/04/02 07:13:03;;;;;;;10.13;1.80;;;2.30;69.30;;;;;;4087914;28;20039;-85
2022/04/02 07:15:05;;;;;;;4.03;1.50;;;2.30;69.10;;;;;;4089112;28;20027;-86
2022/04/02 07:17:27;;;;;;;5.10;1.80;;;2.40;68.90;;;;;;4106451;28;20616;-85
2022/04/02 07:19:30;;;;;;;2.83;1.70;;;2.50;68.70;;;;;;4074141;29;20413;-85
2022/04/02 07:21:31;;;;;;;4.45;1.88;;;2.40;68.50;;;;;;4054327;29;20108;-86
2022/04/02 07:23:32;;;;;;;3.00;1.58;;;2.60;68.30;;;;;;4044673;29;20036;-84
2022/04/02 07:25:33;;;;;;;6.07;1.65;;;2.60;67.80;;;;;;4073662;29;20036;-83
2022/04/02 07:27:38;;;;;;;4.68;2.10;;;2.70;67.60;;;;;;4056059;29;20048;-85
2022/04/02 07:29:40;;;;;;;5.60;2.05;;;2.80;67.00;;;;;;4029390;29;20052;-84
2022/04/02 07:31:41;;;;;;;3.97;1.92;;;2.80;66.60;;;;;;4075607;29;20080;-84
2022/04/02 07:33:42;;;;;;;3.80;1.73;;;2.80;66.50;;;;;;4057612;29;20124;-84
2022/04/02 07:35:55;;;;;;;3.38;1.42;;;2.80;67.00;;;;;;4041843;29;20064;-84
2022/04/02 07:38:16;;;;;;;4.80;1.90;;;2.80;66.20;;;;;;4072191;29;20051;-85
2022/04/02 07:41:04;;;;;;;3.20;1.75;;;2.90;66.00;;;;;;4062611;29;20028;-84
2022/04/02 07:43:24;;;;;;;7.82;1.77;;;2.90;65.60;;;;;;4075730;29;20051;-85
2022/04/02 07:45:32;;;;;;;4.35;1.60;;;3.00;65.50;;;;;;4063165;29;20052;-84
2022/04/02 07:47:34;;;;;;;3.72;1.63;;;3.10;65.40;;;;;;4062785;29;20040;-84
2022/04/02 07:49:38;;;;;;;3.97;1.63;;;3.10;65.00;;;;;;4075772;29;20050;-84
2022/04/02 07:51:39;;;;;;;3.53;1.90;;;3.10;64.60;;;;;;4055536;29;20123;-84
2022/04/02 07:54:05;;;;;;;9.38;1.80;;;3.20;64.30;;;;;;4074301;29;20043;-84
2022/04/02 07:56:28;;;;;;;5.57;1.65;;;3.20;63.90;;;;;;4047480;28;20161;-84
2022/04/02 08:12:11;;;;;;;5.15;1.60;;;3.30;63.40;;;;;;4194853;27;20751;-82
2022/04/02 08:14:12;;;;;;;6.78;1.90;;;3.80;60.50;;;;;;4166790;28;20037;-83
2022/04/02 08:16:13;;;;;;;9.45;1.35;;;4.00;60.60;;;;;;4161908;28;20683;-83
2022/04/02 08:18:20;;;;;;;4.00;1.80;;;4.10;59.60;;;;;;4175911;28;20083;-83
2022/04/02 08:20:22;;;;;;;4.90;1.70;;;4.20;58.50;;;;;;4171317;28;20037;-82
2022/04/02 08:22:23;;;;;;;5.55;1.90;;;4.30;58.10;;;;;;4183638;28;20025;-83
2022/04/02 08:24:25;;;;;;;6.45;1.60;;;4.40;58.30;;;;;;4188634;28;20536;-83
2022/04/02 08:26:56;;;;;;;4.80;2.05;;;4.50;58.50;;;;;;4166041;28;20027;-83
2022/04/02 08:29:00;;;;;;;6.10;1.67;;;4.70;58.20;;;;;;4182074;28;20584;-83
2022/04/02 08:31:15;;;;;;;3.85;1.60;;;4.80;57.80;;;;;;4197627;28;20591;-83
2022/04/02 08:33:29;;;;;;;5.90;1.70;;;5.00;57.60;;;;;;4177135;28;20048;-83
2022/04/02 08:36:14;;;;;;;8.73;2.13;;;5.10;57.30;;;;;;4185877;28;20123;-83
2022/04/02 08:38:38;;;;;;;4.75;1.85;;;5.30;57.30;;;;;;4171887;28;20601;-83
2022/04/02 08:40:58;;;;;;;4.70;1.88;;;5.40;57.10;;;;;;4179199;28;20454;-83
2022/04/02 08:43:11;;;;;;;5.13;1.88;;;5.50;54.80;;;;;;4174121;28;20077;-83
2022/04/02 08:45:28;;;;;;;11.20;2.25;;;5.50;54.80;;;;;;4178774;28;20040;-83
2022/04/02 08:47:29;;;;;;;5.68;1.85;;;5.50;54.60;;;;;;4189145;28;20100;-83
2022/04/02 08:49:42;;;;;;;4.00;1.60;;;5.50;54.50;;;;;;4179164;28;20980;-82
2022/04/02 08:51:46;;;;;;;6.13;1.67;;;5.50;54.40;;;;;;4164555;28;20141;-83
2022/04/02 08:54:01;;;;;;;3.38;1.70;;;5.50;54.20;;;;;;4175337;28;20044;-83
2022/04/02 08:56:03;;;;;;;4.05;1.80;;;5.50;53.70;;;;;;4176715;28;20033;-82
2022/04/02 08:58:10;;;;;;;7.63;2.47;;;5.40;53.70;;;;;;4178748;28;20728;-83
2022/04/02 09:00:12;;;;;;;7.90;1.92;;;5.40;53.30;;;;;;4179153;28;20108;-83
2022/04/02 09:02:24;;;;;;;5.85;2.05;;;5.30;53.30;;;;;;4171373;28;20063;-83
2022/04/02 09:04:34;;;;;;;4.57;1.95;;;5.20;53.50;;;;;;4194264;28;20023;-82
2022/04/02 09:07:13;;;;;;;5.80;1.95;;;5.20;53.50;;;;;;4173781;28;20087;-82
2022/04/02 09:09:27;;;;;;;3.70;1.52;;;5.10;53.40;;;;;;4173034;28;20103;-82
2022/04/02 09:11:57;;;;;;;4.65;1.80;;;5.00;54.10;;;;;;4173756;28;20037;-82
2022/04/02 09:14:19;;;;;;;4.55;1.58;;;5.00;53.80;;;;;;4160442;28;20128;-82
2022/04/02 09:17:00;;;;;;;6.30;1.83;;;4.90;54.00;;;;;;4159553;28;20034;-83
2022/04/02 09:19:04;;;;;;;5.63;2.25;;;4.90;53.90;;;;;;4156383;28;20079;-82
2022/04/02 09:21:07;;;;;;;8.05;1.90;;;4.80;53.70;;;;;;4165653;28;20045;-83
2022/04/02 09:23:35;;;;;;;5.10;2.00;;;4.80;53.60;;;;;;4166883;28;20037;-82
2022/04/02 09:25:57;;;;;;;5.25;1.75;;;4.80;53.50;;;;;;4171956;28;20044;-82
2022/04/02 09:28:36;;;;;;;3.70;1.50;;;4.70;53.60;;;;;;4174681;28;22038;-83
2022/04/02 09:31:15;;;;;;;11.13;1.60;;;4.80;53.60;;;;;;4155314;28;20075;-82
2022/04/02 09:33:50;;;;;;;4.90;1.67;;;4.80;53.60;;;;;;4183103;28;20051;-83
2022/04/02 09:35:54;;;;;;;4.25;1.50;;;4.80;53.20;;;;;;4127914;28;20036;-83
2022/04/02 09:38:26;;;;;;;3.33;1.52;;;4.80;53.50;;;;;;4182756;28;20051;-83
2022/04/02 09:40:57;;;;;;;4.15;1.70;;;4.80;53.40;;;;;;4180824;28;20494;-83
2022/04/02 09:43:01;;;;;;;5.82;2.00;;;4.80;52.90;;;;;;4180551;28;20102;-83
2022/04/02 09:45:27;;;;;;;6.75;2.00;;;4.90;52.50;;;;;;4169028;28;20063;-83
2022/04/02 09:47:51;;;;;;;3.63;1.63;;;4.80;52.00;;;;;;4173246;28;20109;-83
2022/04/02 09:50:11;;;;;;;4.53;1.60;;;4.90;52.30;;;;;;4180227;28;20179;-82
2022/04/02 09:52:21;;;;;;;6.00;1.83;;;4.90;52.30;;;;;;4185452;28;20662;-82
2022/04/02 09:54:54;;;;;;;4.47;1.80;;;4.90;52.60;;;;;;4165212;28;20052;-82
2022/04/02 09:57:23;;;;;;;3.00;1.60;;;4.90;51.70;;;;;;4143749;28;20052;-82
2022/04/02 09:59:42;;;;;;;6.05;2.03;;;4.90;51.60;;;;;;4136050;28;20729;-83
2022/04/02 10:01:58;;;;;;;3.70;1.55;;;4.80;51.10;;;;;;4158823;28;20091;-82
2022/04/02 10:04:08;;;;;;;4.53;1.77;;;4.80;51.10;;;;;;4117305;28;20039;-83
2022/04/02 10:06:36;;;;;;;5.47;1.95;;;4.80;51.00;;;;;;4140467;28;20782;-82
2022/04/02 10:08:58;;;;;;;3.22;1.55;;;4.80;51.40;;;;;;4104454;28;20535;-82
2022/04/02 10:11:02;;;;;;;4.88;1.65;;;4.70;51.40;;;;;;4128595;28;20045;-82
2022/04/02 10:13:07;;;;;;;3.53;1.55;;;4.70;51.40;;;;;;4079747;28;20198;-82
2022/04/02 10:15:10;;;;;;;4.95;1.75;;;4.60;51.20;;;;;;4113173;28;20058;-82
2022/04/02 10:17:14;;;;;;;8.85;2.20;;;4.60;51.10;;;;;;4074971;28;20814;-82
2022/04/02 10:19:27;;;;;;;2.72;1.42;;;4.50;51.10;;;;;;4100063;28;20043;-82
2022/04/02 10:21:38;;;;;;;7.88;1.63;;;4.50;51.60;;;;;;4101929;28;20027;-82
2022/04/02 10:23:40;;;;;;;8.77;1.83;;;4.50;51.30;;;;;;4112420;28;20108;-82
2022/04/02 10:26:03;;;;;;;4.55;1.63;;;4.50;51.30;;;;;;4100260;28;20105;-82
2022/04/02 10:28:09;;;;;;;2.53;1.55;;;4.50;51.50;;;;;;4095469;28;20027;-82
2022/04/02 10:30:15;;;;;;;5.15;1.88;;;4.50;51.60;;;;;;4106622;28;20023;-82
2022/04/02 10:32:32;;;;;;;3.67;1.88;;;4.50;51.30;;;;;;4112304;28;20050;-83
2022/04/02 10:34:39;;;;;;;3.95;1.50;;;4.60;51.50;;;;;;4127159;28;20057;-82
2022/04/02 10:36:48;;;;;;;5.25;1.95;;;4.70;51.30;;;;;;4128686;28;20101;-83
2022/04/02 10:38:51;;;;;;;3.13;1.77;;;4.70;50.90;;;;;;4104986;28;20043;-82
2022/04/02 10:40:52;;;;;;;3.65;1.58;;;4.70;50.60;;;;;;4113309;28;20124;-82
2022/04/02 10:42:58;;;;;;;4.40;1.65;;;4.70;50.40;;;;;;4098009;28;20565;-83
2022/04/02 10:45:03;;;;;;;2.53;1.40;;;4.80;50.40;;;;;;4111502;28;20030;-82
2022/04/02 10:47:06;;;;;;;2.67;1.35;;;4.90;50.60;;;;;;4166767;28;20063;-82
2022/04/02 10:49:08;;;;;;;4.75;1.20;;;4.90;50.10;;;;;;4164739;28;20048;-83
2022/04/02 10:51:12;;;;;;;3.08;1.38;;;4.90;49.70;;;;;;4145308;28;20215;-84
2022/04/02 10:53:17;;;;;;;3.70;1.25;;;4.90;48.90;;;;;;4145602;28;20056;-84
2022/04/02 10:55:21;;;;;;;3.83;1.70;;;4.90;48.50;;;;;;4150112;28;20067;-83
2022/04/02 10:57:22;;;;;;;3.53;1.70;;;4.90;48.20;;;;;;4144899;28;20490;-84
2022/04/02 10:59:26;;;;;;;4.53;1.27;;;5.00;48.10;;;;;;4163592;28;20033;-84
2022/04/02 11:01:27;;;;;;;5.43;1.88;;;5.00;48.40;;;;;;4137439;28;20936;-84
2022/04/02 11:03:29;;;;;;;4.88;1.45;;;5.10;48.00;;;;;;4152624;28;20041;-84
2022/04/02 11:05:36;;;;;;;2.85;1.17;;;5.10;47.60;;;;;;4147540;28;20026;-84
2022/04/02 11:07:40;;;;;;;3.05;1.10;;;5.20;47.40;;;;;;4161508;28;20037;-83
2022/04/02 11:09:41;;;;;;;3.00;1.33;;;5.20;47.50;;;;;;4137576;28;20072;-83
2022/04/02 11:11:43;;;;;;;5.88;1.30;;;5.30;47.50;;;;;;4134235;28;20049;-84
2022/04/02 11:13:49;;;;;;;5.03;1.40;;;5.30;46.90;;;;;;4127128;28;20081;-83
2022/04/02 11:15:50;;;;;;;3.83;1.50;;;5.50;47.30;;;;;;4135384;28;20048;-84
2022/04/02 11:18:01;;;;;;;3.33;1.60;;;5.50;46.80;;;;;;4156114;28;20037;-84
2022/04/02 11:20:29;;;;;;;2.20;1.20;;;5.60;46.80;;;;;;4169740;28;20036;-84
2022/04/02 11:22:46;;;;;;;2.63;1.23;;;5.70;45.80;;;;;;4180978;28;20035;-84
2022/04/02 11:25:25;;;;;;;2.38;1.10;;;5.80;45.00;;;;;;4164674;28;20425;-84
2022/04/02 11:27:37;;;;;;;3.63;1.30;;;5.80;45.00;;;;;;4110595;28;20254;-84
2022/04/02 11:30:02;;;;;;;3.65;1.50;;;5.90;45.50;;;;;;4117533;28;20084;-83
2022/04/02 11:32:04;;;;;;;4.55;1.17;;;5.90;44.30;;;;;;4117887;28;20042;-84
2022/04/02 11:34:20;;;;;;;3.53;1.70;;;6.00;44.30;;;;;;4088360;29;20057;-83
2022/04/02 11:36:23;;;;;;;3.78;1.80;;;6.00;44.80;;;;;;4054144;29;20158;-83
2022/04/02 11:39:03;;;;;;;8.60;1.35;;;6.00;45.00;;;;;;4089638;29;20312;-84
2022/04/02 11:41:27;;;;;;;3.63;1.02;;;6.00;43.70;;;;;;4081886;28;20028;-82
2022/04/02 11:43:38;;;;;;;2.22;1.13;;;6.10;45.00;;;;;;4077884;29;20517;-83